Georgia Queen — WDI7184 — position and weather

sailwx.info

Track history (hours):
 
Tides and Currents Weather Stations Pressure Air Temp Water Temp Dewpoint Dewpoint Depression Visibility Wind Speed Wind Dir Waves Ship Positions

Georgia Queen

Owner: River Street Riverboat, Savannah, GA. More information available from US FCC via Universal Licensing System and Coast Guard Vessel Documentation Center.

Last reported at 2018-Apr-26 10:59 UTC. Time now 2018-Apr-26 11:14 UTC.
Position N 32°05' W 081°05'.

Length 53 m; draft 2.7 m.

Type: Passenger vessel. MMSI: 367726210.

Date/timePositionNaut miles runAvg speedWind from/ knotsBaromVisibWave heightAir tempDewpointWater temp
2018-Apr-26 10:59N 32°05' W 081°05'0 0.0
2018-Apr-26 10:29N 32°05' W 081°05'0 0.0
2018-Apr-26 09:47N 32°05' W 081°05'0 0.0
2018-Apr-26 09:29N 32°05' W 081°05'0 0.0
2018-Apr-26 08:59N 32°05' W 081°05'0 0.0
2018-Apr-26 08:29N 32°05' W 081°05'0 0.0
2018-Apr-26 07:59N 32°05' W 081°05'0 0.0
2018-Apr-26 07:29N 32°05' W 081°05'0 0.0
2018-Apr-26 06:59N 32°05' W 081°05'0 0.0
2018-Apr-26 06:29N 32°05' W 081°05'0 0.0
2018-Apr-26 05:59N 32°05' W 081°05'0 0.0
2018-Apr-26 05:29N 32°05' W 081°05'0 0.0
2018-Apr-26 04:59N 32°05' W 081°05'0 0.0
2018-Apr-26 04:29N 32°05' W 081°05'0 0.0
2018-Apr-26 03:59N 32°05' W 081°05'0 0.0
2018-Apr-26 03:29N 32°05' W 081°05'0 0.0
2018-Apr-26 02:59N 32°05' W 081°05'0 0.0
2018-Apr-26 02:29N 32°05' W 081°05'0 0.0
2018-Apr-26 01:59N 32°05' W 081°05'0 0.0
2018-Apr-26 01:29N 32°05' W 081°05'0 0.0
2018-Apr-26 01:00N 32°05' W 081°05'2 3.1
2018-Apr-26 00:30N 32°05' W 081°04'1 1.3
2018-Apr-25 23:58N 32°05' W 081°03'2 4.6
2018-Apr-25 23:28N 32°05' W 081°06'0 0.2
2018-Apr-25 22:54N 32°05' W 081°05'0 0.0
2018-Apr-25 22:30N 32°05' W 081°05'0 0.0
2018-Apr-25 21:54N 32°05' W 081°05'0 0.0
2018-Apr-25 21:30N 32°05' W 081°05'0 0.0
2018-Apr-25 21:00N 32°05' W 081°05'3 5.0
2018-Apr-25 20:30N 32°05' W 081°02'3 5.1
2018-Apr-25 20:00N 32°05' W 081°05'0 0.1
2018-Apr-25 19:25N 32°05' W 081°05'0 0.0
2018-Apr-25 18:49N 32°05' W 081°05'0 0.0
2018-Apr-25 18:30N 32°05' W 081°05'2 4.7
2018-Apr-25 18:00N 32°05' W 081°03'2 3.8
2018-Apr-25 17:30N 32°05' W 081°05'0 0.8
2018-Apr-25 16:59N 32°05' W 081°05'0 0.0
2018-Apr-25 16:29N 32°05' W 081°05'0 0.0
2018-Apr-25 15:59N 32°05' W 081°05'0 0.0
2018-Apr-25 15:29N 32°05' W 081°05'0 0.0
2018-Apr-25 14:59N 32°05' W 081°05'0 0.0
2018-Apr-25 14:29N 32°05' W 081°05'0 0.0
2018-Apr-25 13:47N 32°05' W 081°05'0 0.0
2018-Apr-25 13:29N 32°05' W 081°05'0 0.0
2018-Apr-25 12:59N 32°05' W 081°05'0 0.0
2018-Apr-25 12:29N 32°05' W 081°05'0 0.0
2018-Apr-25 11:59N 32°05' W 081°05'0 0.0
2018-Apr-25 11:29N 32°05' W 081°05'0 0.0
2018-Apr-25 10:59N 32°05' W 081°05'0 0.0
2018-Apr-25 10:29N 32°05' W 081°05'0 0.0
2018-Apr-25 09:59N 32°05' W 081°05'0 0.0
2018-Apr-25 09:29N 32°05' W 081°05'0 0.0
2018-Apr-25 08:59N 32°05' W 081°05'0 0.0
2018-Apr-25 08:29N 32°05' W 081°05'0 0.0
2018-Apr-25 07:47N 32°05' W 081°05'0 0.0
2018-Apr-25 07:29N 32°05' W 081°05'0 0.0
2018-Apr-25 06:59N 32°05' W 081°05'0 0.0
2018-Apr-25 06:29N 32°05' W 081°05'0 0.0
2018-Apr-25 05:59N 32°05' W 081°05'0 0.0
2018-Apr-25 05:29N 32°05' W 081°05'0 0.0
2018-Apr-25 04:59N 32°05' W 081°05'0 0.0
2018-Apr-25 04:23N 32°05' W 081°05'0 0.0
2018-Apr-25 03:59N 32°05' W 081°05'0 0.0
2018-Apr-25 03:29N 32°05' W 081°05'0 0.0
2018-Apr-25 02:59N 32°05' W 081°05'0 0.0
2018-Apr-25 02:23N 32°05' W 081°05'0 0.0
2018-Apr-25 01:53N 32°05' W 081°05'0 0.0
2018-Apr-25 01:29N 32°05' W 081°05'0 0.0
2018-Apr-25 00:57N 32°05' W 081°05'2 4.0
2018-Apr-25 00:30N 32°05' W 081°03'1 1.9
2018-Apr-25 00:00N 32°05' W 081°02'3 5.1
2018-Apr-24 23:30N 32°05' W 081°05'0 0.2
2018-Apr-24 22:55N 32°05' W 081°05'0 0.0
2018-Apr-24 22:25N 32°05' W 081°05'0 0.0
2018-Apr-24 21:49N 32°05' W 081°05'0 0.0
2018-Apr-24 21:25N 32°05' W 081°05'0 0.0
2018-Apr-24 21:01N 32°05' W 081°05'3 5.2
2018-Apr-24 20:30N 32°05' W 081°02'2 5.0
2018-Apr-24 20:00N 32°05' W 081°05'0 0.5
2018-Apr-24 19:31N 32°05' W 081°05'0 0.0
2018-Apr-24 18:51N 32°05' W 081°05'0 0.0
2018-Apr-24 18:30N 32°05' W 081°05'3 4.9
2018-Apr-24 18:00N 32°05' W 081°02'2 4.4
2018-Apr-24 17:29N 32°05' W 081°05'0 0.6
2018-Apr-24 17:00N 32°05' W 081°05'0 0.0
2018-Apr-24 16:27N 32°05' W 081°05'0 0.0
2018-Apr-24 15:57N 32°05' W 081°05'0 0.0
2018-Apr-24 15:27N 32°05' W 081°05'0 0.0
2018-Apr-24 14:57N 32°05' W 081°05'0 0.0
2018-Apr-24 14:27N 32°05' W 081°05'0 0.0
2018-Apr-24 13:57N 32°05' W 081°05'0 0.0
2018-Apr-24 13:27N 32°05' W 081°05'0 0.0
2018-Apr-24 12:45N 32°05' W 081°05'0 0.0
2018-Apr-24 12:27N 32°05' W 081°05'0 0.0
2018-Apr-24 11:51N 32°05' W 081°05'0 0.0
2018-Apr-24 11:27N 32°05' W 081°05'0 0.0
2018-Apr-24 10:57N 32°05' W 081°05'0 0.0
2018-Apr-24 10:21N 32°05' W 081°05'0 0.0
2018-Apr-24 09:57N 32°05' W 081°05'0 0.0
2018-Apr-24 09:27N 32°05' W 081°05'0 0.0
2018-Apr-24 08:57N 32°05' W 081°05'0 0.0
2018-Apr-24 08:27N 32°05' W 081°05'0 0.0
2018-Apr-24 07:57N 32°05' W 081°05'0 0.0
2018-Apr-24 07:27N 32°05' W 081°05'0 0.0
2018-Apr-24 06:57N 32°05' W 081°05'0 0.0
2018-Apr-24 06:27N 32°05' W 081°05'0 0.0
2018-Apr-24 05:57N 32°05' W 081°05'0 0.0
2018-Apr-24 05:27N 32°05' W 081°05'0 0.0
2018-Apr-24 04:57N 32°05' W 081°05'0 0.0
2018-Apr-24 04:27N 32°05' W 081°05'0 0.0
2018-Apr-24 03:51N 32°05' W 081°05'0 0.0
2018-Apr-24 03:27N 32°05' W 081°05'0 0.0
2018-Apr-24 02:51N 32°05' W 081°05'0 0.0
2018-Apr-24 02:27N 32°05' W 081°05'0 0.0
2018-Apr-24 01:51N 32°05' W 081°05'0 0.0
2018-Apr-24 01:27N 32°05' W 081°05'0 0.0
2018-Apr-24 00:58N 32°05' W 081°05'0 0.8
2018-Apr-24 00:30N 32°05' W 081°06'3 6.5
2018-Apr-24 00:00N 32°08' W 081°08'2 4.1
2018-Apr-23 23:30N 32°06' W 081°07'2 3.2
2018-Apr-23 23:00N 32°05' W 081°05'0 0.0
2018-Apr-23 22:16N 32°05' W 081°05'0 0.0
2018-Apr-23 21:58N 32°05' W 081°05'0 0.0
2018-Apr-23 21:00N 32°05' W 081°05'2 4.4
2018-Apr-23 20:30N 32°05' W 081°03'2 4.1
2018-Apr-23 20:00N 32°05' W 081°05'0 0.4
2018-Apr-23 19:29N 32°05' W 081°05'0 0.0
2018-Apr-23 18:59N 32°05' W 081°05'0 0.0
2018-Apr-23 18:31N 32°05' W 081°05'2 4.5
2018-Apr-23 18:00N 32°05' W 081°03'2 4.4
2018-Apr-23 17:30N 32°05' W 081°05'0 0.2
2018-Apr-23 16:56N 32°05' W 081°05'0 0.0
2018-Apr-23 16:26N 32°05' W 081°05'0 0.0
2018-Apr-23 15:56N 32°05' W 081°05'0 0.0
2018-Apr-23 15:26N 32°05' W 081°05'0 0.0
2018-Apr-23 14:56N 32°05' W 081°05'0 0.0
2018-Apr-23 14:26N 32°05' W 081°05'0 0.0
2018-Apr-23 13:56N 32°05' W 081°05'0 0.0
2018-Apr-23 13:20N 32°05' W 081°05'0 0.0
2018-Apr-23 12:56N 32°05' W 081°05'0 0.0
2018-Apr-23 12:26N 32°05' W 081°05'0 0.0
2018-Apr-23 11:56N 32°05' W 081°05'0 0.0
2018-Apr-23 11:26N 32°05' W 081°05'0 0.0
2018-Apr-23 10:56N 32°05' W 081°05'0 0.0
2018-Apr-23 10:26N 32°05' W 081°05'0 0.0
2018-Apr-23 09:56N 32°05' W 081°05'0 0.0
2018-Apr-23 09:26N 32°05' W 081°05'0 0.0
2018-Apr-23 08:56N 32°05' W 081°05'0 0.0
2018-Apr-23 08:26N 32°05' W 081°05'0 0.0
2018-Apr-23 07:56N 32°05' W 081°05'0 0.0
2018-Apr-23 07:26N 32°05' W 081°05'0 0.0
2018-Apr-23 06:56N 32°05' W 081°05'0 0.0
2018-Apr-23 06:26N 32°05' W 081°05'0 0.0
2018-Apr-23 05:56N 32°05' W 081°05'0 0.0
2018-Apr-23 05:20N 32°05' W 081°05'0 0.0
2018-Apr-23 04:50N 32°05' W 081°05'0 0.0
2018-Apr-23 04:26N 32°05' W 081°05'0 0.0
2018-Apr-23 03:50N 32°05' W 081°05'0 0.0
2018-Apr-23 03:26N 32°05' W 081°05'0 0.0
2018-Apr-23 02:56N 32°05' W 081°05'0 0.0
2018-Apr-23 02:26N 32°05' W 081°05'0 0.0
2018-Apr-23 01:56N 32°05' W 081°05'0 0.0
2018-Apr-23 01:26N 32°05' W 081°05'0 0.0
2018-Apr-23 01:00N 32°05' W 081°05'2 3.3
2018-Apr-23 00:30N 32°05' W 081°04'0 0.5
2018-Apr-22 23:58N 32°05' W 081°04'2 4.4
2018-Apr-22 23:30N 32°06' W 081°06'1 1.7
2018-Apr-22 23:00N 32°05' W 081°05'0 0.0
2018-Apr-22 22:24N 32°05' W 081°05'0 0.0
2018-Apr-22 22:00N 32°05' W 081°05'0 0.0
2018-Apr-22 21:30N 32°05' W 081°05'0 0.0
2018-Apr-22 21:00N 32°05' W 081°05'3 5.3
2018-Apr-22 20:30N 32°05' W 081°02'3 5.5
2018-Apr-22 20:00N 32°05' W 081°06'0 0.3
2018-Apr-22 19:30N 32°05' W 081°05'0 0.0
2018-Apr-22 18:54N 32°05' W 081°05'0 0.0
2018-Apr-22 18:30N 32°05' W 081°05'2 5.0
2018-Apr-22 18:00N 32°05' W 081°03'2 4.7
2018-Apr-22 17:30N 32°05' W 081°05'0 0.1
2018-Apr-22 16:45N 32°05' W 081°05'0 0.0
2018-Apr-22 16:27N 32°05' W 081°05'0 0.0
2018-Apr-22 15:57N 32°05' W 081°05'0 0.0
2018-Apr-22 15:27N 32°05' W 081°05'0 0.0
2018-Apr-22 14:57N 32°05' W 081°05'0 0.0
2018-Apr-22 14:21N 32°05' W 081°05'0 0.0
2018-Apr-22 13:57N 32°05' W 081°05'0 0.0
2018-Apr-22 13:27N 32°05' W 081°05'0 0.0
2018-Apr-22 12:51N 32°05' W 081°05'0 0.0
2018-Apr-22 12:27N 32°05' W 081°05'0 0.0
2018-Apr-22 11:57N 32°05' W 081°05'0 0.0
2018-Apr-22 11:27N 32°05' W 081°05'0 0.0
2018-Apr-22 10:51N 32°05' W 081°05'0 0.0
2018-Apr-22 10:27N 32°05' W 081°05'0 0.0
2018-Apr-22 09:57N 32°05' W 081°05'0 0.0
2018-Apr-22 09:27N 32°05' W 081°05'0 0.0
2018-Apr-22 08:57N 32°05' W 081°05'0 0.0
2018-Apr-22 08:27N 32°05' W 081°05'0 0.0
2018-Apr-22 07:57N 32°05' W 081°05'0 0.0
2018-Apr-22 07:27N 32°05' W 081°05'0 0.0
2018-Apr-22 06:57N 32°05' W 081°05'0 0.0
2018-Apr-22 06:27N 32°05' W 081°05'0 0.0
2018-Apr-22 05:57N 32°05' W 081°05'0 0.0
2018-Apr-22 05:27N 32°05' W 081°05'0 0.0
2018-Apr-22 04:33N 32°05' W 081°05'0 0.1
2018-Apr-22 04:27N 32°05' W 081°05'0 0.0
2018-Apr-22 03:57N 32°05' W 081°05'0 0.0
2018-Apr-22 03:27N 32°05' W 081°05'0 0.0
2018-Apr-22 03:00N 32°05' W 081°05'1 2.9
2018-Apr-22 02:30N 32°05' W 081°04'1 3.0
2018-Apr-22 02:00N 32°05' W 081°05'0 0.1
2018-Apr-22 01:15N 32°05' W 081°05'0 0.0
2018-Apr-22 01:00N 32°05' W 081°05'2 3.1
2018-Apr-22 00:31N 32°05' W 081°04'0 0.7
2018-Apr-22 00:00N 32°05' W 081°04'2 3.7
2018-Apr-21 23:30N 32°05' W 081°06'1 1.2
2018-Apr-21 22:54N 32°05' W 081°05'0 0.0
2018-Apr-21 22:30N 32°05' W 081°05'0 0.0
2018-Apr-21 22:00N 32°05' W 081°05'0 0.0
2018-Apr-21 21:30N 32°05' W 081°05'0 0.0
2018-Apr-21 21:00N 32°05' W 081°05'2 4.9
2018-Apr-21 20:30N 32°05' W 081°03'2 4.5
2018-Apr-21 20:00N 32°05' W 081°05'0 0.4
2018-Apr-21 19:30N 32°05' W 081°05'0 0.0
2018-Apr-21 18:43N 32°05' W 081°05'0 1.0
2018-Apr-21 18:30N 32°05' W 081°05'2 4.5
2018-Apr-21 18:00N 32°05' W 081°03'3 5.9
2018-Apr-21 17:30N 32°05' W 081°06'1 1.1
2018-Apr-21 16:56N 32°05' W 081°05'0 0.0
2018-Apr-21 16:20N 32°05' W 081°05'0 0.0
2018-Apr-21 15:38N 32°05' W 081°05'0 0.0
2018-Apr-21 15:26N 32°05' W 081°05'0 0.0
2018-Apr-21 14:56N 32°05' W 081°05'0 0.0
2018-Apr-21 14:26N 32°05' W 081°05'0 0.0
2018-Apr-21 13:56N 32°05' W 081°05'0 0.0
2018-Apr-21 13:26N 32°05' W 081°05'0 0.0
2018-Apr-21 12:56N 32°05' W 081°05'0 0.0
2018-Apr-21 12:20N 32°05' W 081°05'0 0.0
2018-Apr-21 11:56N 32°05' W 081°05'0 0.0
2018-Apr-21 11:26N 32°05' W 081°05'0 0.0
2018-Apr-21 10:50N 32°05' W 081°05'0 0.0
2018-Apr-21 10:26N 32°05' W 081°05'0 0.0
2018-Apr-21 09:56N 32°05' W 081°05'0 0.0
2018-Apr-21 09:26N 32°05' W 081°05'0 0.0
2018-Apr-21 08:56N 32°05' W 081°05'0 0.0
2018-Apr-21 08:14N 32°05' W 081°05'0 0.0
2018-Apr-21 07:56N 32°05' W 081°05'0 0.0
2018-Apr-21 07:26N 32°05' W 081°05'0 0.0
2018-Apr-21 06:56N 32°05' W 081°05'0 0.0
2018-Apr-21 06:26N 32°05' W 081°05'0 0.0
2018-Apr-21 05:56N 32°05' W 081°05'0 0.0
2018-Apr-21 05:26N 32°05' W 081°05'0 0.0
2018-Apr-21 04:56N 32°05' W 081°05'0 0.0
2018-Apr-21 04:26N 32°05' W 081°05'0 0.0
2018-Apr-21 03:56N 32°05' W 081°05'0 0.0
2018-Apr-21 03:26N 32°05' W 081°05'0 0.0
2018-Apr-21 02:56N 32°05' W 081°05'0 0.0
2018-Apr-21 02:26N 32°05' W 081°05'0 0.0
2018-Apr-21 01:56N 32°05' W 081°05'0 0.0
2018-Apr-21 01:26N 32°05' W 081°05'0 0.0
2018-Apr-21 00:57N 32°05' W 081°05'2 4.8
2018-Apr-21 00:30N 32°05' W 081°03'0 0.9
2018-Apr-21 00:00N 32°05' W 081°03'2 4.0
2018-Apr-20 23:30N 32°05' W 081°06'0 0.2
2018-Apr-20 21:02N 32°05' W 081°05'0 0.0
2018-Apr-20 21:00N 32°05' W 081°05'2 4.0
2018-Apr-20 20:30N 32°05' W 081°03'2 3.7
2018-Apr-20 20:00N 32°05' W 081°05'0 0.4
2018-Apr-20 19:29N 32°05' W 081°05'0 0.0
2018-Apr-20 18:59N 32°05' W 081°05'0 0.0
2018-Apr-20 18:30N 32°05' W 081°05'2 4.3
2018-Apr-20 18:00N 32°05' W 081°03'2 3.8
2018-Apr-20 17:30N 32°05' W 081°05'0 0.5
2018-Apr-20 17:00N 32°05' W 081°05'0 0.0
2018-Apr-20 16:30N 32°05' W 081°05'0 0.0
2018-Apr-20 16:00N 32°05' W 081°05'0 0.0
2018-Apr-20 15:24N 32°05' W 081°05'0 0.0
2018-Apr-20 15:00N 32°05' W 081°05'0 0.0
2018-Apr-20 14:30N 32°05' W 081°05'0 0.0
2018-Apr-20 14:00N 32°05' W 081°05'0 0.0
2018-Apr-20 13:30N 32°05' W 081°05'0 0.0
2018-Apr-20 13:00N 32°05' W 081°05'0 0.0
2018-Apr-20 12:24N 32°05' W 081°05'0 0.0
2018-Apr-20 12:00N 32°05' W 081°05'0 0.0
2018-Apr-20 11:30N 32°05' W 081°05'0 0.0
2018-Apr-20 10:54N 32°05' W 081°05'0 0.0
2018-Apr-20 10:30N 32°05' W 081°05'0 0.0
2018-Apr-20 10:00N 32°05' W 081°05'0 0.0
2018-Apr-20 09:30N 32°05' W 081°05'0 0.0
2018-Apr-20 09:00N 32°05' W 081°05'0 0.0
2018-Apr-20 08:30N 32°05' W 081°05'0 0.0
2018-Apr-20 08:00N 32°05' W 081°05'0 0.0
2018-Apr-20 07:30N 32°05' W 081°05'0 0.0
2018-Apr-20 07:00N 32°05' W 081°05'0 0.0
2018-Apr-20 06:24N 32°05' W 081°05'0 0.0
2018-Apr-20 06:00N 32°05' W 081°05'0 0.0
2018-Apr-20 05:30N 32°05' W 081°05'0 0.0
2018-Apr-20 05:00N 32°05' W 081°05'0 0.0
2018-Apr-20 03:42N 32°05' W 081°05'0 0.0
2018-Apr-20 03:30N 32°05' W 081°05'0 0.0
2018-Apr-20 03:00N 32°05' W 081°05'0 0.0
2018-Apr-20 02:00N 32°05' W 081°05'0 0.0
2018-Apr-20 01:30N 32°05' W 081°05'0 0.0
2018-Apr-20 00:53N 32°05' W 081°05'2 4.0
2018-Apr-20 00:28N 32°05' W 081°03'1 2.0
2018-Apr-20 00:00N 32°05' W 081°02'2 4.5
2018-Apr-19 23:30N 32°05' W 081°05'0 0.8
2018-Apr-19 22:58N 32°05' W 081°05'0 0.0
2018-Apr-19 22:28N 32°05' W 081°05'0 0.0
2018-Apr-19 21:52N 32°05' W 081°05'0 0.0
2018-Apr-19 21:28N 32°05' W 081°05'0 0.0
2018-Apr-19 21:00N 32°05' W 081°05'2 4.5
2018-Apr-19 20:30N 32°05' W 081°03'2 3.8
2018-Apr-19 20:00N 32°05' W 081°05'0 0.7
2018-Apr-19 19:28N 32°05' W 081°05'0 0.0
2018-Apr-19 18:59N 32°05' W 081°05'0 0.0
2018-Apr-19 18:30N 32°05' W 081°05'2 4.5
2018-Apr-19 18:00N 32°05' W 081°03'2 3.9
2018-Apr-19 17:30N 32°05' W 081°05'0 0.5
2018-Apr-19 16:55N 32°05' W 081°05'0 0.0
2018-Apr-19 16:25N 32°05' W 081°05'0 0.0
2018-Apr-19 15:49N 32°05' W 081°05'0 0.0
2018-Apr-19 15:01N 32°05' W 081°05'0 0.1
2018-Apr-19 14:55N 32°05' W 081°05'0 0.0
2018-Apr-19 14:25N 32°05' W 081°05'0 0.0
2018-Apr-19 13:55N 32°05' W 081°05'0 0.0
2018-Apr-19 13:13N 32°05' W 081°05'0 0.0
2018-Apr-19 12:49N 32°05' W 081°05'0 0.0
2018-Apr-19 12:25N 32°05' W 081°05'0 0.0
2018-Apr-19 11:55N 32°05' W 081°05'0 0.0
2018-Apr-19 11:25N 32°05' W 081°05'0 0.0
2018-Apr-19 10:55N 32°05' W 081°05'0 0.0
2018-Apr-19 10:25N 32°05' W 081°05'0 0.0
2018-Apr-19 09:55N 32°05' W 081°05'0 0.0
2018-Apr-19 09:13N 32°05' W 081°05'0 0.0
2018-Apr-19 08:55N 32°05' W 081°05'0 0.0
2018-Apr-19 08:07N 32°05' W 081°05'0 0.0
2018-Apr-19 07:55N 32°05' W 081°05'0 0.0
2018-Apr-19 07:25N 32°05' W 081°05'0 0.0
2018-Apr-19 06:37N 32°05' W 081°05'0 0.0
2018-Apr-19 06:25N 32°05' W 081°05'0 0.0
2018-Apr-19 05:07N 32°05' W 081°05'0 0.0
2018-Apr-19 04:55N 32°05' W 081°05'0 0.0
2018-Apr-19 04:25N 32°05' W 081°05'0 0.0
2018-Apr-19 03:49N 32°05' W 081°05'0 0.0
2018-Apr-19 03:25N 32°05' W 081°05'0 0.0
2018-Apr-19 02:43N 32°05' W 081°05'0 0.0
2018-Apr-19 02:25N 32°05' W 081°05'0 0.0
2018-Apr-19 01:52N 32°05' W 081°05'0 0.0
2018-Apr-19 01:28N 32°05' W 081°05'0 0.0
2018-Apr-19 00:59N 32°05' W 081°05'2 3.5
2018-Apr-19 00:30N 32°05' W 081°03'2 3.7
2018-Apr-18 23:59N 32°05' W 081°01'2 3.8
2018-Apr-18 23:30N 32°05' W 081°03'2 3.3
2018-Apr-18 22:58N 32°05' W 081°05'0 0.0
2018-Apr-18 22:28N 32°05' W 081°05'0 0.0
2018-Apr-18 21:58N 32°05' W 081°05'0 0.0
2018-Apr-18 21:16N 32°05' W 081°05'0 0.0
2018-Apr-18 20:59N 32°05' W 081°05'2 4.3
2018-Apr-18 20:30N 32°05' W 081°03'2 3.7
2018-Apr-18 20:00N 32°05' W 081°05'0 0.3
2018-Apr-18 19:20N 32°05' W 081°05'0 0.0
2018-Apr-18 18:56N 32°05' W 081°05'0 0.0
2018-Apr-18 18:30N 32°05' W 081°05'2 3.9
2018-Apr-18 18:00N 32°05' W 081°03'1 2.5
2018-Apr-18 17:29N 32°05' W 081°05'1 1.3
2018-Apr-18 16:57N 32°05' W 081°05'0 0.0
2018-Apr-18 16:27N 32°05' W 081°05'0 0.0
2018-Apr-18 15:57N 32°05' W 081°05'0 0.0
2018-Apr-18 15:21N 32°05' W 081°05'0 0.0
2018-Apr-18 14:57N 32°05' W 081°05'0 0.0
2018-Apr-18 14:21N 32°05' W 081°05'0 0.0
2018-Apr-18 13:45N 32°05' W 081°05'0 0.0
2018-Apr-18 13:27N 32°05' W 081°05'0 0.0
2018-Apr-18 12:51N 32°05' W 081°05'0 0.0
2018-Apr-18 12:27N 32°05' W 081°05'0 0.0
2018-Apr-18 11:51N 32°05' W 081°05'0 0.0
2018-Apr-18 11:09N 32°05' W 081°05'0 0.0
2018-Apr-18 10:51N 32°05' W 081°05'0 0.0
2018-Apr-18 10:21N 32°05' W 081°05'0 0.0
2018-Apr-18 09:57N 32°05' W 081°05'0 0.0
2018-Apr-18 09:27N 32°05' W 081°05'0 0.0
2018-Apr-18 08:57N 32°05' W 081°05'0 0.0
2018-Apr-18 08:21N 32°05' W 081°05'0 0.0
2018-Apr-18 07:57N 32°05' W 081°05'0 0.0
2018-Apr-18 07:27N 32°05' W 081°05'0 0.0
2018-Apr-18 06:57N 32°05' W 081°05'0 0.0
2018-Apr-18 06:27N 32°05' W 081°05'0 0.0
2018-Apr-18 05:57N 32°05' W 081°05'0 0.0
2018-Apr-18 05:27N 32°05' W 081°05'0 0.0
2018-Apr-18 04:57N 32°05' W 081°05'0 0.0
2018-Apr-18 04:21N 32°05' W 081°05'0 0.0
2018-Apr-18 03:57N 32°05' W 081°05'0 0.0
2018-Apr-18 03:27N 32°05' W 081°05'0 0.0
2018-Apr-18 02:57N 32°05' W 081°05'0 0.0
2018-Apr-18 02:27N 32°05' W 081°05'0 0.0
2018-Apr-18 01:57N 32°05' W 081°05'0 0.0
2018-Apr-18 01:27N 32°05' W 081°05'0 0.0
2018-Apr-18 01:00N 32°05' W 081°05'2 3.5
2018-Apr-18 00:30N 32°05' W 081°03'0 0.1
2018-Apr-18 00:00N 32°05' W 081°03'2 4.2
2018-Apr-17 23:30N 32°05' W 081°06'0 0.6
2018-Apr-17 22:56N 32°05' W 081°05'0 0.0
2018-Apr-17 22:26N 32°05' W 081°05'0 0.0
2018-Apr-17 21:44N 32°05' W 081°05'0 0.0
2018-Apr-17 21:26N 32°05' W 081°05'0 0.0
2018-Apr-17 21:00N 32°05' W 081°05'2 4.4
2018-Apr-17 20:30N 32°05' W 081°03'2 3.5
2018-Apr-17 20:00N 32°05' W 081°05'0 0.7
2018-Apr-17 19:29N 32°05' W 081°05'0 0.0
2018-Apr-17 18:50N 32°05' W 081°05'0 0.0
2018-Apr-17 18:30N 32°05' W 081°05'2 4.5
2018-Apr-17 18:00N 32°05' W 081°03'2 4.3
2018-Apr-17 17:30N 32°05' W 081°05'0 0.3
2018-Apr-17 16:51N 32°05' W 081°05'0 0.0
2018-Apr-17 16:27N 32°05' W 081°05'0 0.0
2018-Apr-17 15:57N 32°05' W 081°05'0 0.0
2018-Apr-17 15:27N 32°05' W 081°05'0 0.0
2018-Apr-17 14:57N 32°05' W 081°05'0 0.0
2018-Apr-17 14:27N 32°05' W 081°05'0 0.0
2018-Apr-17 13:57N 32°05' W 081°05'0 0.0
2018-Apr-17 13:27N 32°05' W 081°05'0 0.0
2018-Apr-17 12:57N 32°05' W 081°05'0 0.0
2018-Apr-17 12:27N 32°05' W 081°05'0 0.0
2018-Apr-17 11:57N 32°05' W 081°05'0 0.0
2018-Apr-17 11:27N 32°05' W 081°05'0 0.0
2018-Apr-17 10:45N 32°05' W 081°05'0 0.0
2018-Apr-17 10:27N 32°05' W 081°05'0 0.0
2018-Apr-17 09:57N 32°05' W 081°05'0 0.0
2018-Apr-17 09:27N 32°05' W 081°05'0 0.0
2018-Apr-17 08:45N 32°05' W 081°05'0 0.0
2018-Apr-17 08:27N 32°05' W 081°05'0 0.0
2018-Apr-17 07:57N 32°05' W 081°05'0 0.0
2018-Apr-17 07:27N 32°05' W 081°05'0 0.0
2018-Apr-17 06:57N 32°05' W 081°05'0 0.0
2018-Apr-17 06:27N 32°05' W 081°05'0 0.0
2018-Apr-17 05:51N 32°05' W 081°05'0 0.0
2018-Apr-17 05:27N 32°05' W 081°05'0 0.0
2018-Apr-17 04:57N 32°05' W 081°05'0 0.0
2018-Apr-17 04:27N 32°05' W 081°05'0 0.0
2018-Apr-17 03:57N 32°05' W 081°05'0 0.0
2018-Apr-17 03:27N 32°05' W 081°05'0 0.0
2018-Apr-17 02:45N 32°05' W 081°05'0 0.0
2018-Apr-17 02:27N 32°05' W 081°05'0 0.0
2018-Apr-17 01:57N 32°05' W 081°05'0 0.0
2018-Apr-17 01:27N 32°05' W 081°05'0 0.0
2018-Apr-17 00:59N 32°05' W 081°05'2 4.4
2018-Apr-17 00:30N 32°05' W 081°03'1 1.9
2018-Apr-17 00:00N 32°05' W 081°04'2 3.0
2018-Apr-16 23:30N 32°05' W 081°06'0 0.6
2018-Apr-16 22:58N 32°05' W 081°05'0 0.0
2018-Apr-16 22:28N 32°05' W 081°05'0 0.0
2018-Apr-16 21:58N 32°05' W 081°05'0 0.0
2018-Apr-16 21:28N 32°05' W 081°05'1 1.8
2018-Apr-16 21:00N 32°05' W 081°04'2 3.7
2018-Apr-16 20:28N 32°05' W 081°02'3 6.0
2018-Apr-16 20:00N 32°05' W 081°05'0 0.1
2018-Apr-16 19:26N 32°05' W 081°05'0 0.0
2018-Apr-16 18:56N 32°05' W 081°05'0 0.0
2018-Apr-16 18:30N 32°05' W 081°05'2 4.6
2018-Apr-16 18:00N 32°05' W 081°03'2 4.0
2018-Apr-16 17:30N 32°05' W 081°05'0 0.5
2018-Apr-16 16:56N 32°05' W 081°05'0 0.0
2018-Apr-16 16:26N 32°05' W 081°05'0 0.0
2018-Apr-16 15:50N 32°05' W 081°05'0 0.0
2018-Apr-16 15:26N 32°05' W 081°05'0 0.0
2018-Apr-16 14:56N 32°05' W 081°05'0 0.0
2018-Apr-16 14:20N 32°05' W 081°05'0 0.0
2018-Apr-16 13:56N 32°05' W 081°05'0 0.0
2018-Apr-16 13:26N 32°05' W 081°05'0 0.0
2018-Apr-16 12:56N 32°05' W 081°05'0 0.0
2018-Apr-16 12:26N 32°05' W 081°05'0 0.0
2018-Apr-16 11:56N 32°05' W 081°05'0 0.0
2018-Apr-16 11:26N 32°05' W 081°05'  
Track history (hours):
 
Tides and Currents Weather Stations Pressure Air Temp Water Temp Dewpoint Dewpoint Depression Visibility Wind Speed Wind Dir Waves Ship Positions

Georgia Queen

Owner: River Street Riverboat, Savannah, GA. More information available from US FCC via Universal Licensing System and Coast Guard Vessel Documentation Center.

Last reported at 2018-Apr-26 10:59 UTC. Time now 2018-Apr-26 11:14 UTC.
Position N 32°05' W 081°05'.

Length 53 m; draft 2.7 m.

Type: Passenger vessel. MMSI: 367726210.

Date/timePositionNaut miles runAvg speedWind from/ knotsBaromVisibWave heightAir tempDewpointWater temp
2018-Apr-26 10:59N 32°05' W 081°05'0 0.0
2018-Apr-26 10:29N 32°05' W 081°05'0 0.0
2018-Apr-26 09:47N 32°05' W 081°05'0 0.0
2018-Apr-26 09:29N 32°05' W 081°05'0 0.0
2018-Apr-26 08:59N 32°05' W 081°05'0 0.0
2018-Apr-26 08:29N 32°05' W 081°05'0 0.0
2018-Apr-26 07:59N 32°05' W 081°05'0 0.0
2018-Apr-26 07:29N 32°05' W 081°05'0 0.0
2018-Apr-26 06:59N 32°05' W 081°05'0 0.0
2018-Apr-26 06:29N 32°05' W 081°05'0 0.0
2018-Apr-26 05:59N 32°05' W 081°05'0 0.0
2018-Apr-26 05:29N 32°05' W 081°05'0 0.0
2018-Apr-26 04:59N 32°05' W 081°05'0 0.0
2018-Apr-26 04:29N 32°05' W 081°05'0 0.0
2018-Apr-26 03:59N 32°05' W 081°05'0 0.0
2018-Apr-26 03:29N 32°05' W 081°05'0 0.0
2018-Apr-26 02:59N 32°05' W 081°05'0 0.0
2018-Apr-26 02:29N 32°05' W 081°05'0 0.0
2018-Apr-26 01:59N 32°05' W 081°05'0 0.0
2018-Apr-26 01:29N 32°05' W 081°05'0 0.0
2018-Apr-26 01:00N 32°05' W 081°05'2 3.1
2018-Apr-26 00:30N 32°05' W 081°04'1 1.3
2018-Apr-25 23:58N 32°05' W 081°03'2 4.6
2018-Apr-25 23:28N 32°05' W 081°06'0 0.2
2018-Apr-25 22:54N 32°05' W 081°05'0 0.0
2018-Apr-25 22:30N 32°05' W 081°05'0 0.0
2018-Apr-25 21:54N 32°05' W 081°05'0 0.0
2018-Apr-25 21:30N 32°05' W 081°05'0 0.0
2018-Apr-25 21:00N 32°05' W 081°05'3 5.0
2018-Apr-25 20:30N 32°05' W 081°02'3 5.1
2018-Apr-25 20:00N 32°05' W 081°05'0 0.1
2018-Apr-25 19:25N 32°05' W 081°05'0 0.0
2018-Apr-25 18:49N 32°05' W 081°05'0 0.0
2018-Apr-25 18:30N 32°05' W 081°05'2 4.7
2018-Apr-25 18:00N 32°05' W 081°03'2 3.8
2018-Apr-25 17:30N 32°05' W 081°05'0 0.8
2018-Apr-25 16:59N 32°05' W 081°05'0 0.0
2018-Apr-25 16:29N 32°05' W 081°05'0 0.0
2018-Apr-25 15:59N 32°05' W 081°05'0 0.0
2018-Apr-25 15:29N 32°05' W 081°05'0 0.0
2018-Apr-25 14:59N 32°05' W 081°05'0 0.0
2018-Apr-25 14:29N 32°05' W 081°05'0 0.0
2018-Apr-25 13:47N 32°05' W 081°05'0 0.0
2018-Apr-25 13:29N 32°05' W 081°05'0 0.0
2018-Apr-25 12:59N 32°05' W 081°05'0 0.0
2018-Apr-25 12:29N 32°05' W 081°05'0 0.0
2018-Apr-25 11:59N 32°05' W 081°05'0 0.0
2018-Apr-25 11:29N 32°05' W 081°05'0 0.0
2018-Apr-25 10:59N 32°05' W 081°05'0 0.0
2018-Apr-25 10:29N 32°05' W 081°05'0 0.0
2018-Apr-25 09:59N 32°05' W 081°05'0 0.0
2018-Apr-25 09:29N 32°05' W 081°05'0 0.0
2018-Apr-25 08:59N 32°05' W 081°05'0 0.0
2018-Apr-25 08:29N 32°05' W 081°05'0 0.0
2018-Apr-25 07:47N 32°05' W 081°05'0 0.0
2018-Apr-25 07:29N 32°05' W 081°05'0 0.0
2018-Apr-25 06:59N 32°05' W 081°05'0 0.0
2018-Apr-25 06:29N 32°05' W 081°05'0 0.0
2018-Apr-25 05:59N 32°05' W 081°05'0 0.0
2018-Apr-25 05:29N 32°05' W 081°05'0 0.0
2018-Apr-25 04:59N 32°05' W 081°05'0 0.0
2018-Apr-25 04:23N 32°05' W 081°05'0 0.0
2018-Apr-25 03:59N 32°05' W 081°05'0 0.0
2018-Apr-25 03:29N 32°05' W 081°05'0 0.0
2018-Apr-25 02:59N 32°05' W 081°05'0 0.0
2018-Apr-25 02:23N 32°05' W 081°05'0 0.0
2018-Apr-25 01:53N 32°05' W 081°05'0 0.0
2018-Apr-25 01:29N 32°05' W 081°05'0 0.0
2018-Apr-25 00:57N 32°05' W 081°05'2 4.0
2018-Apr-25 00:30N 32°05' W 081°03'1 1.9
2018-Apr-25 00:00N 32°05' W 081°02'3 5.1
2018-Apr-24 23:30N 32°05' W 081°05'0 0.2
2018-Apr-24 22:55N 32°05' W 081°05'0 0.0
2018-Apr-24 22:25N 32°05' W 081°05'0 0.0
2018-Apr-24 21:49N 32°05' W 081°05'0 0.0
2018-Apr-24 21:25N 32°05' W 081°05'0 0.0
2018-Apr-24 21:01N 32°05' W 081°05'3 5.2
2018-Apr-24 20:30N 32°05' W 081°02'2 5.0
2018-Apr-24 20:00N 32°05' W 081°05'0 0.5
2018-Apr-24 19:31N 32°05' W 081°05'0 0.0
2018-Apr-24 18:51N 32°05' W 081°05'0 0.0
2018-Apr-24 18:30N 32°05' W 081°05'3 4.9
2018-Apr-24 18:00N 32°05' W 081°02'2 4.4
2018-Apr-24 17:29N 32°05' W 081°05'0 0.6
2018-Apr-24 17:00N 32°05' W 081°05'0 0.0
2018-Apr-24 16:27N 32°05' W 081°05'0 0.0
2018-Apr-24 15:57N 32°05' W 081°05'0 0.0
2018-Apr-24 15:27N 32°05' W 081°05'0 0.0
2018-Apr-24 14:57N 32°05' W 081°05'0 0.0
2018-Apr-24 14:27N 32°05' W 081°05'0 0.0
2018-Apr-24 13:57N 32°05' W 081°05'0 0.0
2018-Apr-24 13:27N 32°05' W 081°05'0 0.0
2018-Apr-24 12:45N 32°05' W 081°05'0 0.0
2018-Apr-24 12:27N 32°05' W 081°05'0 0.0
2018-Apr-24 11:51N 32°05' W 081°05'0 0.0
2018-Apr-24 11:27N 32°05' W 081°05'0 0.0
2018-Apr-24 10:57N 32°05' W 081°05'0 0.0
2018-Apr-24 10:21N 32°05' W 081°05'0 0.0
2018-Apr-24 09:57N 32°05' W 081°05'0 0.0
2018-Apr-24 09:27N 32°05' W 081°05'0 0.0
2018-Apr-24 08:57N 32°05' W 081°05'0 0.0
2018-Apr-24 08:27N 32°05' W 081°05'0 0.0
2018-Apr-24 07:57N 32°05' W 081°05'0 0.0
2018-Apr-24 07:27N 32°05' W 081°05'0 0.0
2018-Apr-24 06:57N 32°05' W 081°05'0 0.0
2018-Apr-24 06:27N 32°05' W 081°05'0 0.0
2018-Apr-24 05:57N 32°05' W 081°05'0 0.0
2018-Apr-24 05:27N 32°05' W 081°05'0 0.0
2018-Apr-24 04:57N 32°05' W 081°05'0 0.0
2018-Apr-24 04:27N 32°05' W 081°05'0 0.0
2018-Apr-24 03:51N 32°05' W 081°05'0 0.0
2018-Apr-24 03:27N 32°05' W 081°05'0 0.0
2018-Apr-24 02:51N 32°05' W 081°05'0 0.0
2018-Apr-24 02:27N 32°05' W 081°05'0 0.0
2018-Apr-24 01:51N 32°05' W 081°05'0 0.0
2018-Apr-24 01:27N 32°05' W 081°05'0 0.0
2018-Apr-24 00:58N 32°05' W 081°05'0 0.8
2018-Apr-24 00:30N 32°05' W 081°06'3 6.5
2018-Apr-24 00:00N 32°08' W 081°08'2 4.1
2018-Apr-23 23:30N 32°06' W 081°07'2 3.2
2018-Apr-23 23:00N 32°05' W 081°05'0 0.0
2018-Apr-23 22:16N 32°05' W 081°05'0 0.0
2018-Apr-23 21:58N 32°05' W 081°05'0 0.0
2018-Apr-23 21:00N 32°05' W 081°05'2 4.4
2018-Apr-23 20:30N 32°05' W 081°03'2 4.1
2018-Apr-23 20:00N 32°05' W 081°05'0 0.4
2018-Apr-23 19:29N 32°05' W 081°05'0 0.0
2018-Apr-23 18:59N 32°05' W 081°05'0 0.0
2018-Apr-23 18:31N 32°05' W 081°05'2 4.5
2018-Apr-23 18:00N 32°05' W 081°03'2 4.4
2018-Apr-23 17:30N 32°05' W 081°05'0 0.2
2018-Apr-23 16:56N 32°05' W 081°05'0 0.0
2018-Apr-23 16:26N 32°05' W 081°05'0 0.0
2018-Apr-23 15:56N 32°05' W 081°05'0 0.0
2018-Apr-23 15:26N 32°05' W 081°05'0 0.0
2018-Apr-23 14:56N 32°05' W 081°05'0 0.0
2018-Apr-23 14:26N 32°05' W 081°05'0 0.0
2018-Apr-23 13:56N 32°05' W 081°05'0 0.0
2018-Apr-23 13:20N 32°05' W 081°05'0 0.0
2018-Apr-23 12:56N 32°05' W 081°05'0 0.0
2018-Apr-23 12:26N 32°05' W 081°05'0 0.0
2018-Apr-23 11:56N 32°05' W 081°05'0 0.0
2018-Apr-23 11:26N 32°05' W 081°05'0 0.0
2018-Apr-23 10:56N 32°05' W 081°05'0 0.0
2018-Apr-23 10:26N 32°05' W 081°05'0 0.0
2018-Apr-23 09:56N 32°05' W 081°05'0 0.0
2018-Apr-23 09:26N 32°05' W 081°05'0 0.0
2018-Apr-23 08:56N 32°05' W 081°05'0 0.0
2018-Apr-23 08:26N 32°05' W 081°05'0 0.0
2018-Apr-23 07:56N 32°05' W 081°05'0 0.0
2018-Apr-23 07:26N 32°05' W 081°05'0 0.0
2018-Apr-23 06:56N 32°05' W 081°05'0 0.0
2018-Apr-23 06:26N 32°05' W 081°05'0 0.0
2018-Apr-23 05:56N 32°05' W 081°05'0 0.0
2018-Apr-23 05:20N 32°05' W 081°05'0 0.0
2018-Apr-23 04:50N 32°05' W 081°05'0 0.0
2018-Apr-23 04:26N 32°05' W 081°05'0 0.0
2018-Apr-23 03:50N 32°05' W 081°05'0 0.0
2018-Apr-23 03:26N 32°05' W 081°05'0 0.0
2018-Apr-23 02:56N 32°05' W 081°05'0 0.0
2018-Apr-23 02:26N 32°05' W 081°05'0 0.0
2018-Apr-23 01:56N 32°05' W 081°05'0 0.0
2018-Apr-23 01:26N 32°05' W 081°05'0 0.0
2018-Apr-23 01:00N 32°05' W 081°05'2 3.3
2018-Apr-23 00:30N 32°05' W 081°04'0 0.5
2018-Apr-22 23:58N 32°05' W 081°04'2 4.4
2018-Apr-22 23:30N 32°06' W 081°06'1 1.7
2018-Apr-22 23:00N 32°05' W 081°05'0 0.0
2018-Apr-22 22:24N 32°05' W 081°05'0 0.0
2018-Apr-22 22:00N 32°05' W 081°05'0 0.0
2018-Apr-22 21:30N 32°05' W 081°05'0 0.0
2018-Apr-22 21:00N 32°05' W 081°05'3 5.3
2018-Apr-22 20:30N 32°05' W 081°02'3 5.5
2018-Apr-22 20:00N 32°05' W 081°06'0 0.3
2018-Apr-22 19:30N 32°05' W 081°05'0 0.0
2018-Apr-22 18:54N 32°05' W 081°05'0 0.0
2018-Apr-22 18:30N 32°05' W 081°05'2 5.0
2018-Apr-22 18:00N 32°05' W 081°03'2 4.7
2018-Apr-22 17:30N 32°05' W 081°05'0 0.1
2018-Apr-22 16:45N 32°05' W 081°05'0 0.0
2018-Apr-22 16:27N 32°05' W 081°05'0 0.0
2018-Apr-22 15:57N 32°05' W 081°05'0 0.0
2018-Apr-22 15:27N 32°05' W 081°05'0 0.0
2018-Apr-22 14:57N 32°05' W 081°05'0 0.0
2018-Apr-22 14:21N 32°05' W 081°05'0 0.0
2018-Apr-22 13:57N 32°05' W 081°05'0 0.0
2018-Apr-22 13:27N 32°05' W 081°05'0 0.0
2018-Apr-22 12:51N 32°05' W 081°05'0 0.0
2018-Apr-22 12:27N 32°05' W 081°05'0 0.0
2018-Apr-22 11:57N 32°05' W 081°05'0 0.0
2018-Apr-22 11:27N 32°05' W 081°05'0 0.0
2018-Apr-22 10:51N 32°05' W 081°05'0 0.0
2018-Apr-22 10:27N 32°05' W 081°05'0 0.0
2018-Apr-22 09:57N 32°05' W 081°05'0 0.0
2018-Apr-22 09:27N 32°05' W 081°05'0 0.0
2018-Apr-22 08:57N 32°05' W 081°05'0 0.0
2018-Apr-22 08:27N 32°05' W 081°05'0 0.0
2018-Apr-22 07:57N 32°05' W 081°05'0 0.0
2018-Apr-22 07:27N 32°05' W 081°05'0 0.0
2018-Apr-22 06:57N 32°05' W 081°05'0 0.0
2018-Apr-22 06:27N 32°05' W 081°05'0 0.0
2018-Apr-22 05:57N 32°05' W 081°05'0 0.0
2018-Apr-22 05:27N 32°05' W 081°05'0 0.0
2018-Apr-22 04:33N 32°05' W 081°05'0 0.1
2018-Apr-22 04:27N 32°05' W 081°05'0 0.0
2018-Apr-22 03:57N 32°05' W 081°05'0 0.0
2018-Apr-22 03:27N 32°05' W 081°05'0 0.0
2018-Apr-22 03:00N 32°05' W 081°05'1 2.9
2018-Apr-22 02:30N 32°05' W 081°04'1 3.0
2018-Apr-22 02:00N 32°05' W 081°05'0 0.1
2018-Apr-22 01:15N 32°05' W 081°05'0 0.0
2018-Apr-22 01:00N 32°05' W 081°05'2 3.1
2018-Apr-22 00:31N 32°05' W 081°04'0 0.7
2018-Apr-22 00:00N 32°05' W 081°04'2 3.7
2018-Apr-21 23:30N 32°05' W 081°06'1 1.2
2018-Apr-21 22:54N 32°05' W 081°05'0 0.0
2018-Apr-21 22:30N 32°05' W 081°05'0 0.0
2018-Apr-21 22:00N 32°05' W 081°05'0 0.0
2018-Apr-21 21:30N 32°05' W 081°05'0 0.0
2018-Apr-21 21:00N 32°05' W 081°05'2 4.9
2018-Apr-21 20:30N 32°05' W 081°03'2 4.5
2018-Apr-21 20:00N 32°05' W 081°05'0 0.4
2018-Apr-21 19:30N 32°05' W 081°05'0 0.0
2018-Apr-21 18:43N 32°05' W 081°05'0 1.0
2018-Apr-21 18:30N 32°05' W 081°05'2 4.5
2018-Apr-21 18:00N 32°05' W 081°03'3 5.9
2018-Apr-21 17:30N 32°05' W 081°06'1 1.1
2018-Apr-21 16:56N 32°05' W 081°05'0 0.0
2018-Apr-21 16:20N 32°05' W 081°05'0 0.0
2018-Apr-21 15:38N 32°05' W 081°05'0 0.0
2018-Apr-21 15:26N 32°05' W 081°05'0 0.0
2018-Apr-21 14:56N 32°05' W 081°05'0 0.0
2018-Apr-21 14:26N 32°05' W 081°05'0 0.0
2018-Apr-21 13:56N 32°05' W 081°05'0 0.0
2018-Apr-21 13:26N 32°05' W 081°05'0 0.0
2018-Apr-21 12:56N 32°05' W 081°05'0 0.0
2018-Apr-21 12:20N 32°05' W 081°05'0 0.0
2018-Apr-21 11:56N 32°05' W 081°05'0 0.0
2018-Apr-21 11:26N 32°05' W 081°05'0 0.0
2018-Apr-21 10:50N 32°05' W 081°05'0 0.0
2018-Apr-21 10:26N 32°05' W 081°05'0 0.0
2018-Apr-21 09:56N 32°05' W 081°05'0 0.0
2018-Apr-21 09:26N 32°05' W 081°05'0 0.0
2018-Apr-21 08:56N 32°05' W 081°05'0 0.0
2018-Apr-21 08:14N 32°05' W 081°05'0 0.0
2018-Apr-21 07:56N 32°05' W 081°05'0 0.0
2018-Apr-21 07:26N 32°05' W 081°05'0 0.0
2018-Apr-21 06:56N 32°05' W 081°05'0 0.0
2018-Apr-21 06:26N 32°05' W 081°05'0 0.0
2018-Apr-21 05:56N 32°05' W 081°05'0 0.0
2018-Apr-21 05:26N 32°05' W 081°05'0 0.0
2018-Apr-21 04:56N 32°05' W 081°05'0 0.0
2018-Apr-21 04:26N 32°05' W 081°05'0 0.0
2018-Apr-21 03:56N 32°05' W 081°05'0 0.0
2018-Apr-21 03:26N 32°05' W 081°05'0 0.0
2018-Apr-21 02:56N 32°05' W 081°05'0 0.0
2018-Apr-21 02:26N 32°05' W 081°05'0 0.0
2018-Apr-21 01:56N 32°05' W 081°05'0 0.0
2018-Apr-21 01:26N 32°05' W 081°05'0 0.0
2018-Apr-21 00:57N 32°05' W 081°05'2 4.8
2018-Apr-21 00:30N 32°05' W 081°03'0 0.9
2018-Apr-21 00:00N 32°05' W 081°03'2 4.0
2018-Apr-20 23:30N 32°05' W 081°06'0 0.2
2018-Apr-20 21:02N 32°05' W 081°05'0 0.0
2018-Apr-20 21:00N 32°05' W 081°05'2 4.0
2018-Apr-20 20:30N 32°05' W 081°03'2 3.7
2018-Apr-20 20:00N 32°05' W 081°05'0 0.4
2018-Apr-20 19:29N 32°05' W 081°05'0 0.0
2018-Apr-20 18:59N 32°05' W 081°05'0 0.0
2018-Apr-20 18:30N 32°05' W 081°05'2 4.3
2018-Apr-20 18:00N 32°05' W 081°03'2 3.8
2018-Apr-20 17:30N 32°05' W 081°05'0 0.5
2018-Apr-20 17:00N 32°05' W 081°05'0 0.0
2018-Apr-20 16:30N 32°05' W 081°05'0 0.0
2018-Apr-20 16:00N 32°05' W 081°05'0 0.0
2018-Apr-20 15:24N 32°05' W 081°05'0 0.0
2018-Apr-20 15:00N 32°05' W 081°05'0 0.0
2018-Apr-20 14:30N 32°05' W 081°05'0 0.0
2018-Apr-20 14:00N 32°05' W 081°05'0 0.0
2018-Apr-20 13:30N 32°05' W 081°05'0 0.0
2018-Apr-20 13:00N 32°05' W 081°05'0 0.0
2018-Apr-20 12:24N 32°05' W 081°05'0 0.0
2018-Apr-20 12:00N 32°05' W 081°05'0 0.0
2018-Apr-20 11:30N 32°05' W 081°05'0 0.0
2018-Apr-20 10:54N 32°05' W 081°05'0 0.0
2018-Apr-20 10:30N 32°05' W 081°05'0 0.0
2018-Apr-20 10:00N 32°05' W 081°05'0 0.0
2018-Apr-20 09:30N 32°05' W 081°05'0 0.0
2018-Apr-20 09:00N 32°05' W 081°05'0 0.0
2018-Apr-20 08:30N 32°05' W 081°05'0 0.0
2018-Apr-20 08:00N 32°05' W 081°05'0 0.0
2018-Apr-20 07:30N 32°05' W 081°05'0 0.0
2018-Apr-20 07:00N 32°05' W 081°05'0 0.0
2018-Apr-20 06:24N 32°05' W 081°05'0 0.0
2018-Apr-20 06:00N 32°05' W 081°05'0 0.0
2018-Apr-20 05:30N 32°05' W 081°05'0 0.0
2018-Apr-20 05:00N 32°05' W 081°05'0 0.0
2018-Apr-20 03:42N 32°05' W 081°05'0 0.0
2018-Apr-20 03:30N 32°05' W 081°05'0 0.0
2018-Apr-20 03:00N 32°05' W 081°05'0 0.0
2018-Apr-20 02:00N 32°05' W 081°05'0 0.0
2018-Apr-20 01:30N 32°05' W 081°05'0 0.0
2018-Apr-20 00:53N 32°05' W 081°05'2 4.0
2018-Apr-20 00:28N 32°05' W 081°03'1 2.0
2018-Apr-20 00:00N 32°05' W 081°02'2 4.5
2018-Apr-19 23:30N 32°05' W 081°05'0 0.8
2018-Apr-19 22:58N 32°05' W 081°05'0 0.0
2018-Apr-19 22:28N 32°05' W 081°05'0 0.0
2018-Apr-19 21:52N 32°05' W 081°05'0 0.0
2018-Apr-19 21:28N 32°05' W 081°05'0 0.0
2018-Apr-19 21:00N 32°05' W 081°05'2 4.5
2018-Apr-19 20:30N 32°05' W 081°03'2 3.8
2018-Apr-19 20:00N 32°05' W 081°05'0 0.7
2018-Apr-19 19:28N 32°05' W 081°05'0 0.0
2018-Apr-19 18:59N 32°05' W 081°05'0 0.0
2018-Apr-19 18:30N 32°05' W 081°05'2 4.5
2018-Apr-19 18:00N 32°05' W 081°03'2 3.9
2018-Apr-19 17:30N 32°05' W 081°05'0 0.5
2018-Apr-19 16:55N 32°05' W 081°05'0 0.0
2018-Apr-19 16:25N 32°05' W 081°05'0 0.0
2018-Apr-19 15:49N 32°05' W 081°05'0 0.0
2018-Apr-19 15:01N 32°05' W 081°05'0 0.1
2018-Apr-19 14:55N 32°05' W 081°05'0 0.0
2018-Apr-19 14:25N 32°05' W 081°05'0 0.0
2018-Apr-19 13:55N 32°05' W 081°05'0 0.0
2018-Apr-19 13:13N 32°05' W 081°05'0 0.0
2018-Apr-19 12:49N 32°05' W 081°05'0 0.0
2018-Apr-19 12:25N 32°05' W 081°05'0 0.0
2018-Apr-19 11:55N 32°05' W 081°05'0 0.0
2018-Apr-19 11:25N 32°05' W 081°05'0 0.0
2018-Apr-19 10:55N 32°05' W 081°05'0 0.0
2018-Apr-19 10:25N 32°05' W 081°05'0 0.0
2018-Apr-19 09:55N 32°05' W 081°05'0 0.0
2018-Apr-19 09:13N 32°05' W 081°05'0 0.0
2018-Apr-19 08:55N 32°05' W 081°05'0 0.0
2018-Apr-19 08:07N 32°05' W 081°05'0 0.0
2018-Apr-19 07:55N 32°05' W 081°05'0 0.0
2018-Apr-19 07:25N 32°05' W 081°05'0 0.0
2018-Apr-19 06:37N 32°05' W 081°05'0 0.0
2018-Apr-19 06:25N 32°05' W 081°05'0 0.0
2018-Apr-19 05:07N 32°05' W 081°05'0 0.0
2018-Apr-19 04:55N 32°05' W 081°05'0 0.0
2018-Apr-19 04:25N 32°05' W 081°05'0 0.0
2018-Apr-19 03:49N 32°05' W 081°05'0 0.0
2018-Apr-19 03:25N 32°05' W 081°05'0 0.0
2018-Apr-19 02:43N 32°05' W 081°05'0 0.0
2018-Apr-19 02:25N 32°05' W 081°05'0 0.0
2018-Apr-19 01:52N 32°05' W 081°05'0 0.0
2018-Apr-19 01:28N 32°05' W 081°05'0 0.0
2018-Apr-19 00:59N 32°05' W 081°05'2 3.5
2018-Apr-19 00:30N 32°05' W 081°03'2 3.7
2018-Apr-18 23:59N 32°05' W 081°01'2 3.8
2018-Apr-18 23:30N 32°05' W 081°03'2 3.3
2018-Apr-18 22:58N 32°05' W 081°05'0 0.0
2018-Apr-18 22:28N 32°05' W 081°05'0 0.0
2018-Apr-18 21:58N 32°05' W 081°05'0 0.0
2018-Apr-18 21:16N 32°05' W 081°05'0 0.0
2018-Apr-18 20:59N 32°05' W 081°05'2 4.3
2018-Apr-18 20:30N 32°05' W 081°03'2 3.7
2018-Apr-18 20:00N 32°05' W 081°05'0 0.3
2018-Apr-18 19:20N 32°05' W 081°05'0 0.0
2018-Apr-18 18:56N 32°05' W 081°05'0 0.0
2018-Apr-18 18:30N 32°05' W 081°05'2 3.9
2018-Apr-18 18:00N 32°05' W 081°03'1 2.5
2018-Apr-18 17:29N 32°05' W 081°05'1 1.3
2018-Apr-18 16:57N 32°05' W 081°05'0 0.0
2018-Apr-18 16:27N 32°05' W 081°05'0 0.0
2018-Apr-18 15:57N 32°05' W 081°05'0 0.0
2018-Apr-18 15:21N 32°05' W 081°05'0 0.0
2018-Apr-18 14:57N 32°05' W 081°05'0 0.0
2018-Apr-18 14:21N 32°05' W 081°05'0 0.0
2018-Apr-18 13:45N 32°05' W 081°05'0 0.0
2018-Apr-18 13:27N 32°05' W 081°05'0 0.0
2018-Apr-18 12:51N 32°05' W 081°05'0 0.0
2018-Apr-18 12:27N 32°05' W 081°05'0 0.0
2018-Apr-18 11:51N 32°05' W 081°05'0 0.0
2018-Apr-18 11:09N 32°05' W 081°05'0 0.0
2018-Apr-18 10:51N 32°05' W 081°05'0 0.0
2018-Apr-18 10:21N 32°05' W 081°05'0 0.0
2018-Apr-18 09:57N 32°05' W 081°05'0 0.0
2018-Apr-18 09:27N 32°05' W 081°05'0 0.0
2018-Apr-18 08:57N 32°05' W 081°05'0 0.0
2018-Apr-18 08:21N 32°05' W 081°05'0 0.0
2018-Apr-18 07:57N 32°05' W 081°05'0 0.0
2018-Apr-18 07:27N 32°05' W 081°05'0 0.0
2018-Apr-18 06:57N 32°05' W 081°05'0 0.0
2018-Apr-18 06:27N 32°05' W 081°05'0 0.0
2018-Apr-18 05:57N 32°05' W 081°05'0 0.0
2018-Apr-18 05:27N 32°05' W 081°05'0 0.0
2018-Apr-18 04:57N 32°05' W 081°05'0 0.0
2018-Apr-18 04:21N 32°05' W 081°05'0 0.0
2018-Apr-18 03:57N 32°05' W 081°05'0 0.0
2018-Apr-18 03:27N 32°05' W 081°05'0 0.0
2018-Apr-18 02:57N 32°05' W 081°05'0 0.0
2018-Apr-18 02:27N 32°05' W 081°05'0 0.0
2018-Apr-18 01:57N 32°05' W 081°05'0 0.0
2018-Apr-18 01:27N 32°05' W 081°05'0 0.0
2018-Apr-18 01:00N 32°05' W 081°05'2 3.5
2018-Apr-18 00:30N 32°05' W 081°03'0 0.1
2018-Apr-18 00:00N 32°05' W 081°03'2 4.2
2018-Apr-17 23:30N 32°05' W 081°06'0 0.6
2018-Apr-17 22:56N 32°05' W 081°05'0 0.0
2018-Apr-17 22:26N 32°05' W 081°05'0 0.0
2018-Apr-17 21:44N 32°05' W 081°05'0 0.0
2018-Apr-17 21:26N 32°05' W 081°05'0 0.0
2018-Apr-17 21:00N 32°05' W 081°05'2 4.4
2018-Apr-17 20:30N 32°05' W 081°03'2 3.5
2018-Apr-17 20:00N 32°05' W 081°05'0 0.7
2018-Apr-17 19:29N 32°05' W 081°05'0 0.0
2018-Apr-17 18:50N 32°05' W 081°05'0 0.0
2018-Apr-17 18:30N 32°05' W 081°05'2 4.5
2018-Apr-17 18:00N 32°05' W 081°03'2 4.3
2018-Apr-17 17:30N 32°05' W 081°05'0 0.3
2018-Apr-17 16:51N 32°05' W 081°05'0 0.0
2018-Apr-17 16:27N 32°05' W 081°05'0 0.0
2018-Apr-17 15:57N 32°05' W 081°05'0 0.0
2018-Apr-17 15:27N 32°05' W 081°05'0 0.0
2018-Apr-17 14:57N 32°05' W 081°05'0 0.0
2018-Apr-17 14:27N 32°05' W 081°05'0 0.0
2018-Apr-17 13:57N 32°05' W 081°05'0 0.0
2018-Apr-17 13:27N 32°05' W 081°05'0 0.0
2018-Apr-17 12:57N 32°05' W 081°05'0 0.0
2018-Apr-17 12:27N 32°05' W 081°05'0 0.0
2018-Apr-17 11:57N 32°05' W 081°05'0 0.0
2018-Apr-17 11:27N 32°05' W 081°05'0 0.0
2018-Apr-17 10:45N 32°05' W 081°05'0 0.0
2018-Apr-17 10:27N 32°05' W 081°05'0 0.0
2018-Apr-17 09:57N 32°05' W 081°05'0 0.0
2018-Apr-17 09:27N 32°05' W 081°05'0 0.0
2018-Apr-17 08:45N 32°05' W 081°05'0 0.0
2018-Apr-17 08:27N 32°05' W 081°05'0 0.0
2018-Apr-17 07:57N 32°05' W 081°05'0 0.0
2018-Apr-17 07:27N 32°05' W 081°05'0 0.0
2018-Apr-17 06:57N 32°05' W 081°05'0 0.0
2018-Apr-17 06:27N 32°05' W 081°05'0 0.0
2018-Apr-17 05:51N 32°05' W 081°05'0 0.0
2018-Apr-17 05:27N 32°05' W 081°05'0 0.0
2018-Apr-17 04:57N 32°05' W 081°05'0 0.0
2018-Apr-17 04:27N 32°05' W 081°05'0 0.0
2018-Apr-17 03:57N 32°05' W 081°05'0 0.0
2018-Apr-17 03:27N 32°05' W 081°05'0 0.0
2018-Apr-17 02:45N 32°05' W 081°05'0 0.0
2018-Apr-17 02:27N 32°05' W 081°05'0 0.0
2018-Apr-17 01:57N 32°05' W 081°05'0 0.0
2018-Apr-17 01:27N 32°05' W 081°05'0 0.0
2018-Apr-17 00:59N 32°05' W 081°05'2 4.4
2018-Apr-17 00:30N 32°05' W 081°03'1 1.9
2018-Apr-17 00:00N 32°05' W 081°04'2 3.0
2018-Apr-16 23:30N 32°05' W 081°06'0 0.6
2018-Apr-16 22:58N 32°05' W 081°05'0 0.0
2018-Apr-16 22:28N 32°05' W 081°05'0 0.0
2018-Apr-16 21:58N 32°05' W 081°05'0 0.0
2018-Apr-16 21:28N 32°05' W 081°05'1 1.8
2018-Apr-16 21:00N 32°05' W 081°04'2 3.7
2018-Apr-16 20:28N 32°05' W 081°02'3 6.0
2018-Apr-16 20:00N 32°05' W 081°05'0 0.1
2018-Apr-16 19:26N 32°05' W 081°05'0 0.0
2018-Apr-16 18:56N 32°05' W 081°05'0 0.0
2018-Apr-16 18:30N 32°05' W 081°05'2 4.6
2018-Apr-16 18:00N 32°05' W 081°03'2 4.0
2018-Apr-16 17:30N 32°05' W 081°05'0 0.5
2018-Apr-16 16:56N 32°05' W 081°05'0 0.0
2018-Apr-16 16:26N 32°05' W 081°05'0 0.0
2018-Apr-16 15:50N 32°05' W 081°05'0 0.0
2018-Apr-16 15:26N 32°05' W 081°05'0 0.0
2018-Apr-16 14:56N 32°05' W 081°05'0 0.0
2018-Apr-16 14:20N 32°05' W 081°05'0 0.0
2018-Apr-16 13:56N 32°05' W 081°05'0 0.0
2018-Apr-16 13:26N 32°05' W 081°05'0 0.0
2018-Apr-16 12:56N 32°05' W 081°05'0 0.0
2018-Apr-16 12:26N 32°05' W 081°05'0 0.0
2018-Apr-16 11:56N 32°05' W 081°05'0 0.0
2018-Apr-16 11:26N 32°05' W 081°05'  

Dump ship's entire track history